createdAt,value
2017-11-11T00:00:15.314Z,0.00
2017-11-11T00:01:15.261Z,0.00
2017-11-11T00:02:15.233Z,0.00
2017-11-11T00:03:15.232Z,0.00
2017-11-11T00:04:15.205Z,0.00
2017-11-11T00:05:15.162Z,0.00
2017-11-11T00:06:15.182Z,0.00
2017-11-11T00:07:15.116Z,0.00
2017-11-11T00:08:15.143Z,0.00
2017-11-11T00:09:15.059Z,0.00
2017-11-11T00:10:16.611Z,0.00
2017-11-11T00:11:15.018Z,0.00
2017-11-11T00:12:14.987Z,0.00
2017-11-11T00:13:15.184Z,0.00
2017-11-11T00:14:15.022Z,0.00
2017-11-11T00:15:14.959Z,0.00
2017-11-11T00:16:14.893Z,0.00
2017-11-11T00:17:14.854Z,0.00
2017-11-11T00:18:14.850Z,0.00
2017-11-11T00:19:14.849Z,0.00
2017-11-11T00:20:14.868Z,0.00
2017-11-11T00:21:14.830Z,0.00
2017-11-11T00:22:14.749Z,0.00
2017-11-11T00:23:14.740Z,0.00
2017-11-11T00:24:14.751Z,0.00
2017-11-11T00:25:14.700Z,0.00
2017-11-11T00:26:14.708Z,0.00
2017-11-11T00:27:14.628Z,0.00
2017-11-11T00:28:14.639Z,0.00
2017-11-11T00:29:14.602Z,0.00
2017-11-11T00:30:14.678Z,0.00
2017-11-11T00:31:14.619Z,0.00
2017-11-11T00:32:14.583Z,0.00
2017-11-11T00:33:14.518Z,0.00
2017-11-11T00:34:14.522Z,0.00
2017-11-11T00:35:14.513Z,0.00
2017-11-11T00:36:14.470Z,0.00
2017-11-11T00:37:14.438Z,0.00
2017-11-11T00:38:14.463Z,0.00
2017-11-11T00:39:14.402Z,0.00
2017-11-11T00:40:14.487Z,0.00
2017-11-11T00:41:14.342Z,0.00
2017-11-11T00:42:14.313Z,0.00
2017-11-11T00:43:14.268Z,0.00
2017-11-11T00:44:14.292Z,0.00
2017-11-11T00:45:14.210Z,0.00
2017-11-11T00:46:14.228Z,0.00
2017-11-11T00:47:14.193Z,0.00
2017-11-11T00:48:14.177Z,0.00
2017-11-11T00:49:14.122Z,0.00
2017-11-11T00:50:14.114Z,0.00
2017-11-11T00:51:14.148Z,0.00
2017-11-11T00:52:14.188Z,0.00
2017-11-11T00:53:14.104Z,0.00
2017-11-11T00:54:14.046Z,0.00
2017-11-11T00:55:13.991Z,0.00
2017-11-11T00:56:13.998Z,0.00
2017-11-11T00:57:13.980Z,0.00
2017-11-11T00:58:13.921Z,0.00
2017-11-11T00:59:13.879Z,0.00
2017-11-11T01:00:13.909Z,0.00
2017-11-11T01:01:13.858Z,0.00
2017-11-11T01:02:13.816Z,0.00
2017-11-11T01:03:13.815Z,0.00
2017-11-11T01:04:13.803Z,0.00
2017-11-11T01:05:13.771Z,0.00
2017-11-11T01:06:13.840Z,0.00
2017-11-11T01:07:13.721Z,0.00
2017-11-11T01:08:13.781Z,0.00
2017-11-11T01:09:13.698Z,0.00
2017-11-11T01:10:13.682Z,0.00
2017-11-11T01:11:13.604Z,0.00
2017-11-11T01:12:13.595Z,0.00
2017-11-11T01:13:13.611Z,0.00
2017-11-11T01:14:13.550Z,0.00
2017-11-11T01:15:13.558Z,0.00
2017-11-11T01:16:13.494Z,0.00
2017-11-11T01:17:13.481Z,0.00
2017-11-11T01:18:13.499Z,0.00
2017-11-11T01:19:13.484Z,0.00
2017-11-11T01:20:13.412Z,0.00
2017-11-11T01:21:13.382Z,0.00
2017-11-11T01:22:13.341Z,0.00
2017-11-11T01:23:13.316Z,0.00
2017-11-11T01:24:13.306Z,0.00
2017-11-11T01:25:13.288Z,0.00
2017-11-11T01:26:13.268Z,0.00
2017-11-11T01:27:13.223Z,0.00
2017-11-11T01:28:13.199Z,0.00
2017-11-11T01:29:13.175Z,0.00
2017-11-11T01:30:13.150Z,0.00
2017-11-11T01:31:13.177Z,0.00
2017-11-11T01:32:13.107Z,0.00
2017-11-11T01:33:13.076Z,0.00
2017-11-11T01:34:13.054Z,0.00
2017-11-11T01:35:13.034Z,0.00
2017-11-11T01:36:13.009Z,0.00
2017-11-11T01:37:12.986Z,0.00
2017-11-11T01:38:12.969Z,0.00
2017-11-11T01:39:12.939Z,0.00
2017-11-11T01:40:12.922Z,0.00
2017-11-11T01:41:12.898Z,0.00
2017-11-11T01:42:12.870Z,0.00
2017-11-11T01:43:12.868Z,0.00
2017-11-11T01:44:12.826Z,0.00
2017-11-11T01:45:12.827Z,0.00
2017-11-11T01:46:12.782Z,0.00
2017-11-11T01:47:12.749Z,0.00
2017-11-11T01:48:12.731Z,0.00
2017-11-11T01:49:12.719Z,0.00
2017-11-11T01:50:12.697Z,0.00
2017-11-11T01:51:12.666Z,0.00
2017-11-11T01:52:12.645Z,0.00
2017-11-11T01:53:12.628Z,0.00
2017-11-11T01:54:12.590Z,0.00
2017-11-11T01:55:12.574Z,0.00
2017-11-11T01:56:12.559Z,0.00
2017-11-11T01:57:12.549Z,0.00
2017-11-11T01:58:12.509Z,0.00
2017-11-11T01:59:12.481Z,0.00
2017-11-11T02:00:12.468Z,0.00
2017-11-11T02:01:12.435Z,0.00
2017-11-11T02:02:12.420Z,0.00
2017-11-11T02:03:12.397Z,0.00
2017-11-11T02:04:12.367Z,0.00
2017-11-11T02:05:12.342Z,0.00
2017-11-11T02:06:12.313Z,0.00
2017-11-11T02:07:12.292Z,0.00
2017-11-11T02:08:12.279Z,0.00
2017-11-11T02:09:12.257Z,0.00
2017-11-11T02:10:12.247Z,0.00
2017-11-11T02:11:12.211Z,0.00
2017-11-11T02:12:12.176Z,0.00
2017-11-11T02:13:12.164Z,0.00
2017-11-11T02:14:12.135Z,0.00
2017-11-11T02:15:12.115Z,0.00
2017-11-11T02:16:12.108Z,0.00
2017-11-11T02:17:12.066Z,0.00
2017-11-11T02:18:12.055Z,0.00
2017-11-11T02:19:12.037Z,0.00
2017-11-11T02:20:11.998Z,0.00
2017-11-11T02:21:11.984Z,0.00
2017-11-11T02:22:11.956Z,0.00
2017-11-11T02:23:11.925Z,0.00
2017-11-11T02:24:11.913Z,0.00
2017-11-11T02:25:11.888Z,0.00
2017-11-11T02:26:11.857Z,0.00
2017-11-11T02:27:11.832Z,0.00
2017-11-11T02:28:11.805Z,0.00
2017-11-11T02:29:11.797Z,0.00
2017-11-11T02:30:11.784Z,0.00
2017-11-11T02:31:11.738Z,0.00
2017-11-11T02:32:11.722Z,0.00
2017-11-11T02:33:11.697Z,0.00
2017-11-11T02:34:11.672Z,0.00
2017-11-11T02:35:11.649Z,0.00
2017-11-11T02:36:11.626Z,0.00
2017-11-11T02:37:11.618Z,0.00
2017-11-11T02:38:11.577Z,0.00
2017-11-11T02:39:11.568Z,0.00
2017-11-11T02:40:11.538Z,0.00
2017-11-11T02:41:11.507Z,0.00
2017-11-11T02:42:11.482Z,0.00
2017-11-11T02:43:11.481Z,0.00
2017-11-11T02:44:11.460Z,0.00
2017-11-11T02:45:11.412Z,0.00
2017-11-11T02:46:11.398Z,0.00
2017-11-11T02:47:11.381Z,0.00
2017-11-11T02:48:11.343Z,0.00
2017-11-11T02:49:11.338Z,0.00
2017-11-11T02:50:11.325Z,0.00
2017-11-11T02:51:11.279Z,0.00
2017-11-11T02:52:11.268Z,0.00
2017-11-11T02:53:11.272Z,0.00
2017-11-11T02:54:11.219Z,0.00
2017-11-11T02:55:11.182Z,0.00
2017-11-11T02:56:11.173Z,0.00
2017-11-11T02:57:11.158Z,0.00
2017-11-11T02:58:11.117Z,0.00
2017-11-11T02:59:11.098Z,0.00
2017-11-11T03:00:11.068Z,0.00
2017-11-11T03:01:11.062Z,0.00
2017-11-11T03:02:11.024Z,0.00
2017-11-11T03:03:11.001Z,0.00
2017-11-11T03:04:10.980Z,0.00
2017-11-11T03:05:10.952Z,0.00
2017-11-11T03:06:10.938Z,0.00
2017-11-11T03:07:10.909Z,0.00
2017-11-11T03:08:10.880Z,0.00
2017-11-11T03:09:10.872Z,0.00
2017-11-11T03:10:10.830Z,0.00
2017-11-11T03:11:10.821Z,0.00
2017-11-11T03:12:10.792Z,0.00
2017-11-11T03:13:10.775Z,0.00
2017-11-11T03:14:10.748Z,0.00
2017-11-11T03:15:10.723Z,0.00
2017-11-11T03:16:10.704Z,0.00
2017-11-11T03:17:10.675Z,0.00
2017-11-11T03:18:10.643Z,0.00
2017-11-11T03:19:10.622Z,0.00
2017-11-11T03:20:10.607Z,0.00
2017-11-11T03:21:10.594Z,0.00
2017-11-11T03:22:10.556Z,0.00
2017-11-11T03:23:10.535Z,0.00
2017-11-11T03:24:10.517Z,0.00
2017-11-11T03:25:10.485Z,0.00
2017-11-11T03:26:10.465Z,0.00
2017-11-11T03:27:10.453Z,0.00
2017-11-11T03:28:10.433Z,0.00
2017-11-11T03:29:10.398Z,0.00
2017-11-11T03:30:10.373Z,0.00
2017-11-11T03:31:10.355Z,0.00
2017-11-11T03:32:10.330Z,0.00
2017-11-11T03:33:10.313Z,0.00
2017-11-11T03:34:10.280Z,0.00
2017-11-11T03:35:10.276Z,0.00
2017-11-11T03:36:10.224Z,0.00
2017-11-11T03:37:10.219Z,0.00
2017-11-11T03:38:10.190Z,0.00
2017-11-11T03:39:10.172Z,0.00
2017-11-11T03:40:10.163Z,0.00
2017-11-11T03:41:10.131Z,0.00
2017-11-11T03:42:10.120Z,0.00
2017-11-11T03:43:10.072Z,0.00
2017-11-11T03:44:10.051Z,0.00
2017-11-11T03:45:10.025Z,0.00
2017-11-11T03:46:10.032Z,0.00
2017-11-11T03:47:09.977Z,0.00
2017-11-11T03:48:09.960Z,0.00
2017-11-11T03:49:09.929Z,0.00
2017-11-11T03:50:09.918Z,0.00
2017-11-11T03:51:09.886Z,0.00
2017-11-11T03:52:09.870Z,0.00
2017-11-11T03:53:09.852Z,0.00
2017-11-11T03:54:09.816Z,0.00
2017-11-11T03:55:09.808Z,0.00
2017-11-11T03:56:09.774Z,0.00
2017-11-11T03:57:09.753Z,0.00
2017-11-11T03:58:09.725Z,0.00
2017-11-11T03:59:09.695Z,0.00
2017-11-11T04:00:09.688Z,0.00
2017-11-11T04:01:09.645Z,0.00
2017-11-11T04:02:09.641Z,0.00
2017-11-11T04:03:09.605Z,0.00
2017-11-11T04:04:09.589Z,0.00
2017-11-11T04:05:09.564Z,0.00
2017-11-11T04:06:10.070Z,0.00
2017-11-11T04:07:09.509Z,0.00
2017-11-11T04:08:09.509Z,0.00
2017-11-11T04:09:09.482Z,0.00
2017-11-11T04:10:09.455Z,0.00
2017-11-11T04:11:09.432Z,0.00
2017-11-11T04:12:09.400Z,0.00
2017-11-11T04:13:09.368Z,0.00
2017-11-11T04:14:09.373Z,0.00
2017-11-11T04:15:09.339Z,0.00
2017-11-11T04:16:09.359Z,0.00
2017-11-11T04:17:09.281Z,0.00
2017-11-11T04:18:09.272Z,0.00
2017-11-11T04:19:09.267Z,0.00
2017-11-11T04:20:09.228Z,0.00
2017-11-11T04:21:09.182Z,0.00
2017-11-11T04:22:09.165Z,0.00
2017-11-11T04:23:09.135Z,0.00
2017-11-11T04:24:09.110Z,0.00
2017-11-11T04:25:09.091Z,0.00
2017-11-11T04:26:09.087Z,0.00
2017-11-11T04:27:09.056Z,0.00
2017-11-11T04:28:09.096Z,0.00
2017-11-11T04:29:09.012Z,0.00
2017-11-11T04:30:08.974Z,0.00
2017-11-11T04:31:08.943Z,0.00
2017-11-11T04:32:08.935Z,0.00
2017-11-11T04:33:08.931Z,0.00
2017-11-11T04:34:08.881Z,0.00
2017-11-11T04:35:08.866Z,0.00
2017-11-11T04:36:08.837Z,0.00
2017-11-11T04:37:08.811Z,0.00
2017-11-11T04:38:08.794Z,0.00
2017-11-11T04:39:08.773Z,0.00
2017-11-11T04:40:08.746Z,0.00
2017-11-11T04:41:08.729Z,0.00
2017-11-11T04:42:08.705Z,0.00
2017-11-11T04:43:08.679Z,0.00
2017-11-11T04:44:08.652Z,0.00
2017-11-11T04:45:08.631Z,0.00
2017-11-11T04:46:08.613Z,0.00
2017-11-11T04:47:08.603Z,0.00
2017-11-11T04:48:08.557Z,0.00
2017-11-11T04:49:08.537Z,0.00
2017-11-11T04:50:08.529Z,0.00
2017-11-11T04:51:08.495Z,0.00
2017-11-11T04:52:08.468Z,0.00
2017-11-11T04:53:08.450Z,0.00
2017-11-11T04:54:08.418Z,0.00
2017-11-11T04:55:08.429Z,0.00
2017-11-11T04:56:08.369Z,0.00
2017-11-11T04:57:08.363Z,0.00
2017-11-11T04:58:08.332Z,0.00
2017-11-11T04:59:08.305Z,0.00
2017-11-11T05:00:08.292Z,0.00
2017-11-11T05:01:08.264Z,0.00
2017-11-11T05:02:08.244Z,0.00
2017-11-11T05:03:08.211Z,0.00
2017-11-11T05:04:08.189Z,0.00
2017-11-11T05:05:08.185Z,0.00
2017-11-11T05:06:08.136Z,0.00
2017-11-11T05:07:08.129Z,0.00
2017-11-11T05:08:08.096Z,0.00
2017-11-11T05:09:08.070Z,0.00
2017-11-11T05:10:08.062Z,0.00
2017-11-11T05:11:08.062Z,0.00
2017-11-11T05:12:08.012Z,0.00
2017-11-11T05:13:07.977Z,0.00
2017-11-11T05:14:07.961Z,0.00
2017-11-11T05:15:07.989Z,0.00
2017-11-11T05:16:07.934Z,0.00
2017-11-11T05:17:07.898Z,0.00
2017-11-11T05:18:07.866Z,0.00
2017-11-11T05:19:07.917Z,0.00
2017-11-11T05:20:07.819Z,0.00
2017-11-11T05:21:07.796Z,0.00
2017-11-11T05:22:07.838Z,0.00
2017-11-11T05:23:07.750Z,0.00
2017-11-11T05:24:07.728Z,0.00
2017-11-11T05:25:07.707Z,0.00
2017-11-11T05:26:07.685Z,0.00
2017-11-11T05:27:07.686Z,0.00
2017-11-11T05:28:07.672Z,0.00
2017-11-11T05:29:07.602Z,0.00
2017-11-11T05:30:07.610Z,0.00
2017-11-11T05:31:07.633Z,0.00
2017-11-11T05:32:07.545Z,0.00
2017-11-11T05:33:07.511Z,0.00
2017-11-11T05:34:07.495Z,0.00
2017-11-11T05:35:07.462Z,0.00
2017-11-11T05:36:07.445Z,0.00
2017-11-11T05:37:07.425Z,0.00
2017-11-11T05:38:07.407Z,0.00
2017-11-11T05:39:07.441Z,0.00
2017-11-11T05:40:07.354Z,0.00
2017-11-11T05:41:07.323Z,0.00
2017-11-11T05:42:07.313Z,0.00
2017-11-11T05:43:07.288Z,0.00
2017-11-11T05:44:07.255Z,0.00
2017-11-11T05:45:07.229Z,0.00
2017-11-11T05:46:07.209Z,0.00
2017-11-11T05:47:07.191Z,0.00
2017-11-11T05:48:07.162Z,0.00
2017-11-11T05:49:07.135Z,0.00
2017-11-11T05:50:07.127Z,0.00
2017-11-11T05:51:07.097Z,0.00
2017-11-11T05:52:07.068Z,0.00
2017-11-11T05:53:07.046Z,0.00
2017-11-11T05:54:07.015Z,0.00
2017-11-11T05:55:07.013Z,4.00
2017-11-11T05:56:07.038Z,0.00
2017-11-11T05:57:06.956Z,0.00
2017-11-11T05:58:06.937Z,4.00
2017-11-11T05:59:07.046Z,4.00
2017-11-11T06:00:06.896Z,4.00
2017-11-11T06:01:06.870Z,4.00
2017-11-11T06:02:06.858Z,4.00
2017-11-11T06:03:06.813Z,4.00
2017-11-11T06:04:06.791Z,4.00
2017-11-11T06:05:06.826Z,8.00
2017-11-11T06:06:06.749Z,8.00
2017-11-11T06:07:06.722Z,8.00
2017-11-11T06:08:06.718Z,8.00
2017-11-11T06:09:06.674Z,12.00
2017-11-11T06:10:06.644Z,16.00
2017-11-11T06:11:06.634Z,16.00
2017-11-11T06:12:06.615Z,20.00
2017-11-11T06:13:06.574Z,24.00
2017-11-11T06:14:06.561Z,20.00
2017-11-11T06:15:06.536Z,16.00
2017-11-11T06:16:06.518Z,16.00
2017-11-11T06:17:06.484Z,16.00
2017-11-11T06:18:06.460Z,20.00
2017-11-11T06:19:06.433Z,28.00
2017-11-11T06:20:06.429Z,32.00
2017-11-11T06:21:06.430Z,40.00
2017-11-11T06:22:06.374Z,64.00
2017-11-11T06:23:06.356Z,84.00
2017-11-11T06:24:06.342Z,100.00
2017-11-11T06:25:06.295Z,116.00
2017-11-11T06:26:06.273Z,124.00
2017-11-11T06:27:06.278Z,100.00
2017-11-11T06:28:06.232Z,96.00
2017-11-11T06:29:06.218Z,100.00
2017-11-11T06:30:06.187Z,120.00
2017-11-11T06:31:06.163Z,168.00
2017-11-11T06:32:06.137Z,232.00
2017-11-11T06:33:06.133Z,272.00
2017-11-11T06:34:06.276Z,264.00
2017-11-11T06:35:06.079Z,272.00
2017-11-11T06:36:06.083Z,252.00
2017-11-11T06:37:06.016Z,272.00
2017-11-11T06:38:06.026Z,252.00
2017-11-11T06:39:06.041Z,300.00
2017-11-11T06:40:05.945Z,396.00
2017-11-11T06:41:05.936Z,388.00
2017-11-11T06:42:05.907Z,376.00
2017-11-11T06:43:05.880Z,420.00
2017-11-11T06:44:05.851Z,544.00
2017-11-11T06:45:05.865Z,508.00
2017-11-11T06:46:05.810Z,484.00
2017-11-11T06:47:05.799Z,492.00
2017-11-11T06:48:05.769Z,584.00
2017-11-11T06:49:05.755Z,604.00
2017-11-11T06:50:05.740Z,568.00
2017-11-11T06:51:05.693Z,488.00
2017-11-11T06:52:05.669Z,572.00
2017-11-11T06:53:05.655Z,832.00
2017-11-11T06:54:05.637Z,872.00
2017-11-11T06:55:05.624Z,804.00
2017-11-11T06:56:05.584Z,1012.00
2017-11-11T06:57:05.602Z,1248.00
2017-11-11T06:58:05.542Z,1320.00
2017-11-11T06:59:05.514Z,1428.00
2017-11-11T07:00:05.594Z,1580.00
2017-11-11T07:01:05.473Z,1564.00
2017-11-11T07:02:05.456Z,1504.00
2017-11-11T07:03:05.420Z,1448.00
2017-11-11T07:04:05.397Z,1184.00
2017-11-11T07:05:05.410Z,1080.00
2017-11-11T07:06:05.386Z,892.00
2017-11-11T07:07:05.354Z,724.00
2017-11-11T07:08:05.465Z,580.00
2017-11-11T07:09:05.292Z,508.00
2017-11-11T07:10:05.264Z,488.00
2017-11-11T07:11:05.300Z,480.00
2017-11-11T07:12:05.219Z,520.00
2017-11-11T07:13:05.208Z,652.00
2017-11-11T07:14:05.352Z,816.00
2017-11-11T07:15:05.204Z,952.00
2017-11-11T07:16:05.124Z,952.00
2017-11-11T07:17:05.138Z,1076.00
2017-11-11T07:18:05.123Z,1100.00
2017-11-11T07:19:05.388Z,1116.00
2017-11-11T07:20:05.038Z,1140.00
2017-11-11T07:21:05.234Z,1120.00
2017-11-11T07:22:05.063Z,1116.00
2017-11-11T07:23:04.968Z,1220.00
2017-11-11T07:24:04.945Z,1272.00
2017-11-11T07:25:04.920Z,1292.00
2017-11-11T07:26:04.895Z,1052.00
2017-11-11T07:27:04.869Z,772.00
2017-11-11T07:28:04.843Z,764.00
2017-11-11T07:29:04.833Z,828.00
2017-11-11T07:30:04.811Z,796.00
2017-11-11T07:31:04.794Z,916.00
2017-11-11T07:32:04.748Z,1024.00
2017-11-11T07:33:04.738Z,1112.00
2017-11-11T07:34:04.754Z,1316.00
2017-11-11T07:35:04.677Z,1536.00
2017-11-11T07:36:04.663Z,1712.00
2017-11-11T07:37:04.637Z,1816.00
2017-11-11T07:38:04.637Z,1884.00
2017-11-11T07:39:04.606Z,2396.00
2017-11-11T07:40:04.582Z,2252.00
2017-11-11T07:41:04.554Z,1988.00
2017-11-11T07:42:04.628Z,1668.00
2017-11-11T07:43:04.516Z,1344.00
2017-11-11T07:44:04.481Z,1008.00
2017-11-11T07:45:04.464Z,1368.00
2017-11-11T07:46:04.458Z,1636.00
2017-11-11T07:47:04.411Z,1620.00
2017-11-11T07:48:04.394Z,1424.00
2017-11-11T07:49:04.525Z,1372.00
2017-11-11T07:50:04.336Z,1468.00
2017-11-11T07:51:04.318Z,1884.00
2017-11-11T07:52:04.331Z,1796.00
2017-11-11T07:53:04.277Z,1616.00
2017-11-11T07:54:04.250Z,1236.00
2017-11-11T07:55:04.235Z,1088.00
2017-11-11T07:56:04.268Z,1016.00
2017-11-11T07:57:04.204Z,1076.00
2017-11-11T07:58:04.168Z,1256.00
2017-11-11T07:59:04.133Z,1392.00
2017-11-11T08:00:04.144Z,1076.00
2017-11-11T08:01:04.086Z,1104.00
2017-11-11T08:02:04.083Z,1080.00
2017-11-11T08:03:04.074Z,1136.00
2017-11-11T08:04:04.031Z,1160.00
2017-11-11T08:05:04.010Z,1340.00
2017-11-11T08:06:04.004Z,1164.00
2017-11-11T08:07:03.953Z,1008.00
2017-11-11T08:08:03.937Z,980.00
2017-11-11T08:09:03.916Z,1000.00
2017-11-11T08:10:03.925Z,900.00
2017-11-11T08:11:03.862Z,1096.00
2017-11-11T08:12:03.844Z,1608.00
2017-11-11T08:13:03.850Z,1544.00
2017-11-11T08:14:03.807Z,1432.00
2017-11-11T08:15:03.771Z,1360.00
2017-11-11T08:16:03.748Z,1256.00
2017-11-11T08:17:03.738Z,1160.00
2017-11-11T08:18:03.706Z,1320.00
2017-11-11T08:19:03.704Z,1648.00
2017-11-11T08:20:03.663Z,1776.00
2017-11-11T08:21:03.660Z,1896.00
2017-11-11T08:22:03.612Z,1752.00
2017-11-11T08:23:03.595Z,1896.00
2017-11-11T08:24:03.584Z,1804.00
2017-11-11T08:25:03.550Z,1564.00
2017-11-11T08:26:03.542Z,1552.00
2017-11-11T08:27:03.495Z,1620.00
2017-11-11T08:28:04.232Z,1464.00
2017-11-11T08:29:03.459Z,1392.00
2017-11-11T08:30:03.429Z,1460.00
2017-11-11T08:31:03.428Z,1360.00
2017-11-11T08:32:03.391Z,1364.00
2017-11-11T08:33:03.362Z,1300.00
2017-11-11T08:34:03.336Z,1268.00
2017-11-11T08:35:03.333Z,1424.00
2017-11-11T08:36:03.353Z,1936.00
2017-11-11T08:37:03.272Z,1644.00
2017-11-11T08:38:03.266Z,1476.00
2017-11-11T08:39:03.232Z,1892.00
2017-11-11T08:40:03.210Z,2284.00
2017-11-11T08:41:03.186Z,2324.00
2017-11-11T08:42:03.173Z,1996.00
2017-11-11T08:43:03.152Z,2456.00
2017-11-11T08:44:03.148Z,2600.00
2017-11-11T08:45:03.092Z,2968.00
2017-11-11T08:46:03.079Z,2832.00
2017-11-11T08:47:03.053Z,3112.00
2017-11-11T08:48:03.042Z,3400.00
2017-11-11T08:49:03.032Z,2536.00
2017-11-11T08:50:02.986Z,2308.00
2017-11-11T08:51:02.959Z,2456.00
2017-11-11T08:52:02.980Z,3224.00
2017-11-11T08:53:02.915Z,3580.00
2017-11-11T08:54:02.899Z,3816.00
2017-11-11T08:55:02.893Z,3764.00
2017-11-11T08:56:02.848Z,4232.00
2017-11-11T08:57:02.828Z,3964.00
2017-11-11T08:58:02.806Z,3180.00
2017-11-11T08:59:02.796Z,2988.00
2017-11-11T09:00:02.781Z,3356.00
2017-11-11T09:01:02.759Z,4612.00
2017-11-11T09:02:02.738Z,4576.00
2017-11-11T09:03:02.692Z,4132.00
2017-11-11T09:04:02.679Z,3980.00
2017-11-11T09:05:02.649Z,5188.00
2017-11-11T09:06:02.629Z,5640.00
2017-11-11T09:07:02.608Z,4208.00
2017-11-11T09:08:02.588Z,3456.00
2017-11-11T09:09:02.575Z,3700.00
2017-11-11T09:10:02.535Z,3492.00
2017-11-11T09:11:02.529Z,3344.00
2017-11-11T09:12:02.495Z,2876.00
2017-11-11T09:13:02.491Z,2496.00
2017-11-11T09:14:02.444Z,2728.00
2017-11-11T09:15:02.419Z,2504.00
2017-11-11T09:16:02.428Z,2288.00
2017-11-11T09:17:02.397Z,1904.00
2017-11-11T09:18:02.378Z,1900.00
2017-11-11T09:19:02.364Z,2276.00
2017-11-11T09:20:02.323Z,2576.00
2017-11-11T09:21:02.294Z,2320.00
2017-11-11T09:22:02.287Z,2396.00
2017-11-11T09:23:02.276Z,2800.00
2017-11-11T09:24:02.228Z,2748.00
2017-11-11T09:25:02.206Z,3044.00
2017-11-11T09:26:02.189Z,3508.00
2017-11-11T09:27:02.166Z,3760.00
2017-11-11T09:28:02.143Z,3908.00
2017-11-11T09:29:02.126Z,4156.00
2017-11-11T09:30:02.100Z,4372.00
2017-11-11T09:31:02.093Z,5092.00
2017-11-11T09:32:02.050Z,5160.00
2017-11-11T09:33:02.045Z,4760.00
2017-11-11T09:34:02.023Z,4760.00
2017-11-11T09:35:01.978Z,4048.00
2017-11-11T09:36:01.964Z,5480.00
2017-11-11T09:37:01.977Z,6336.00
2017-11-11T09:38:01.924Z,6476.00
2017-11-11T09:39:01.895Z,8220.00
2017-11-11T09:40:01.891Z,13136.00
2017-11-11T09:41:01.858Z,13436.00
2017-11-11T09:42:01.833Z,7724.00
2017-11-11T09:43:01.828Z,6408.00
2017-11-11T09:44:01.834Z,6228.00
2017-11-11T09:45:01.771Z,5936.00
2017-11-11T09:46:01.740Z,5976.00
2017-11-11T09:47:01.720Z,5232.00
2017-11-11T09:48:01.707Z,5076.00
2017-11-11T09:49:01.679Z,7028.00
2017-11-11T09:50:01.656Z,6664.00
2017-11-11T09:51:01.655Z,6148.00
2017-11-11T09:52:01.620Z,7860.00
2017-11-11T09:53:01.583Z,10776.00
2017-11-11T09:54:01.651Z,10308.00
2017-11-11T09:55:01.557Z,9324.00
2017-11-11T09:56:01.519Z,6636.00
2017-11-11T09:57:01.505Z,6128.00
2017-11-11T09:58:01.473Z,6788.00
2017-11-11T09:59:01.471Z,7404.00
2017-11-11T10:00:01.432Z,7692.00
2017-11-11T10:01:01.432Z,7644.00
2017-11-11T10:02:01.408Z,7412.00
2017-11-11T10:03:01.374Z,6876.00
2017-11-11T10:04:01.362Z,6096.00
2017-11-11T10:05:01.337Z,5108.00
2017-11-11T10:06:01.347Z,5524.00
2017-11-11T10:07:01.288Z,5900.00
2017-11-11T10:08:01.274Z,4772.00
2017-11-11T10:09:01.235Z,4580.00
2017-11-11T10:10:01.298Z,4584.00
2017-11-11T10:11:01.200Z,4532.00
2017-11-11T10:12:01.218Z,4944.00
2017-11-11T10:13:01.173Z,5116.00
2017-11-11T10:14:01.129Z,5020.00
2017-11-11T10:15:01.115Z,4624.00
2017-11-11T10:16:01.098Z,4808.00
2017-11-11T10:17:01.065Z,5780.00
2017-11-11T10:18:01.048Z,5756.00
2017-11-11T10:19:01.055Z,5720.00
2017-11-11T10:20:01.008Z,5320.00
2017-11-11T10:21:01.019Z,5760.00
2017-11-11T10:22:00.981Z,4656.00
2017-11-11T10:23:00.948Z,4748.00
2017-11-11T10:24:00.977Z,4664.00
2017-11-11T10:25:00.916Z,3976.00
2017-11-11T10:26:00.870Z,4124.00
2017-11-11T10:27:00.893Z,4776.00
2017-11-11T10:28:00.823Z,4756.00
2017-11-11T10:29:00.814Z,4648.00
2017-11-11T10:30:00.788Z,4880.00
2017-11-11T10:31:00.779Z,5304.00
2017-11-11T10:32:00.784Z,5232.00
2017-11-11T10:33:00.721Z,4752.00
2017-11-11T10:34:00.710Z,5244.00
2017-11-11T10:35:00.692Z,4972.00
2017-11-11T10:36:00.685Z,4472.00
2017-11-11T10:37:00.653Z,3800.00
2017-11-11T10:38:00.626Z,3544.00
2017-11-11T10:39:00.589Z,3708.00
2017-11-11T10:40:00.595Z,3696.00
2017-11-11T10:41:00.557Z,3588.00
2017-11-11T10:42:00.533Z,3640.00
2017-11-11T10:43:00.524Z,3600.00
2017-11-11T10:44:00.484Z,3816.00
2017-11-11T10:45:00.460Z,3716.00
2017-11-11T10:46:00.435Z,3516.00
2017-11-11T10:47:00.424Z,3444.00
2017-11-11T10:48:00.435Z,3400.00
2017-11-11T10:49:00.384Z,3788.00
2017-11-11T10:50:00.347Z,3608.00
2017-11-11T10:51:00.342Z,3780.00
2017-11-11T10:52:00.315Z,3812.00
2017-11-11T10:53:00.303Z,3628.00
2017-11-11T10:54:00.265Z,3576.00
2017-11-11T10:55:00.245Z,3476.00
2017-11-11T10:56:00.219Z,3316.00
2017-11-11T10:57:00.213Z,2804.00
2017-11-11T10:58:00.174Z,2280.00
2017-11-11T10:59:00.161Z,2412.00
2017-11-11T11:00:00.143Z,2568.00
2017-11-11T11:01:00.115Z,2420.00
2017-11-11T11:02:00.095Z,2144.00
2017-11-11T11:03:00.067Z,2148.00
2017-11-11T11:04:00.046Z,2272.00
2017-11-11T11:05:00.017Z,2572.00
2017-11-11T11:06:00.013Z,3176.00
2017-11-11T11:07:00.075Z,4052.00
2017-11-11T11:07:59.987Z,4212.00
2017-11-11T11:08:59.948Z,4504.00
2017-11-11T11:09:59.941Z,4688.00
2017-11-11T11:10:59.905Z,4244.00
2017-11-11T11:11:59.878Z,4472.00
2017-11-11T11:12:59.838Z,4232.00
2017-11-11T11:13:59.939Z,4344.00
2017-11-11T11:14:59.791Z,4412.00
2017-11-11T11:15:59.776Z,3940.00
2017-11-11T11:16:59.759Z,3604.00
2017-11-11T11:17:59.723Z,3036.00
2017-11-11T11:18:59.713Z,2720.00
2017-11-11T11:19:59.700Z,3124.00
2017-11-11T11:20:59.668Z,2980.00
2017-11-11T11:21:59.643Z,2940.00
2017-11-11T11:22:59.626Z,3428.00
2017-11-11T11:23:59.614Z,3644.00
2017-11-11T11:24:59.626Z,3620.00
2017-11-11T11:25:59.558Z,3380.00
2017-11-11T11:26:59.540Z,3304.00
2017-11-11T11:27:59.518Z,3244.00
2017-11-11T11:28:59.496Z,3428.00
2017-11-11T11:29:59.464Z,3608.00
2017-11-11T11:30:59.475Z,3776.00
2017-11-11T11:31:59.434Z,3568.00
2017-11-11T11:32:59.404Z,3348.00
2017-11-11T11:33:59.370Z,3472.00
2017-11-11T11:34:59.355Z,3076.00
2017-11-11T11:35:59.330Z,2812.00
2017-11-11T11:36:59.303Z,3220.00
2017-11-11T11:37:59.318Z,3172.00
2017-11-11T11:38:59.275Z,3404.00
2017-11-11T11:39:59.245Z,3368.00
2017-11-11T11:40:59.225Z,3196.00
2017-11-11T11:41:59.212Z,3640.00
2017-11-11T11:42:59.191Z,4004.00
2017-11-11T11:43:59.169Z,4004.00
2017-11-11T11:44:59.161Z,3964.00
2017-11-11T11:45:59.140Z,4260.00
2017-11-11T11:46:59.101Z,4020.00
2017-11-11T11:47:59.149Z,3572.00
2017-11-11T11:48:59.065Z,3748.00
2017-11-11T11:49:59.047Z,3624.00
2017-11-11T11:50:59.008Z,3452.00
2017-11-11T11:51:58.981Z,3644.00
2017-11-11T11:52:58.961Z,3728.00
2017-11-11T11:53:58.949Z,3436.00
2017-11-11T11:54:58.914Z,3064.00
2017-11-11T11:55:58.903Z,3228.00
2017-11-11T11:56:58.940Z,3292.00
2017-11-11T11:57:59.135Z,3484.00
2017-11-11T11:58:58.817Z,3256.00
2017-11-11T11:59:58.817Z,2908.00
2017-11-11T12:00:58.859Z,3160.00
2017-11-11T12:01:58.754Z,3168.00
2017-11-11T12:02:58.876Z,2732.00
2017-11-11T12:03:58.722Z,2980.00
2017-11-11T12:04:58.692Z,2848.00
2017-11-11T12:05:58.678Z,2452.00
2017-11-11T12:06:58.653Z,2564.00
2017-11-11T12:07:58.630Z,2844.00
2017-11-11T12:08:58.607Z,2820.00
2017-11-11T12:09:58.597Z,2804.00
2017-11-11T12:10:58.568Z,2756.00
2017-11-11T12:11:58.551Z,2780.00
2017-11-11T12:12:58.531Z,2964.00
2017-11-11T12:13:58.507Z,3204.00
2017-11-11T12:14:58.491Z,3108.00
2017-11-11T12:15:58.565Z,2944.00
2017-11-11T12:16:58.565Z,2968.00
2017-11-11T12:17:58.419Z,3220.00
2017-11-11T12:18:58.390Z,3036.00
2017-11-11T12:19:58.362Z,2960.00
2017-11-11T12:20:58.431Z,3032.00
2017-11-11T12:21:58.442Z,3092.00
2017-11-11T12:22:58.299Z,2924.00
2017-11-11T12:23:58.288Z,3116.00
2017-11-11T12:24:58.291Z,3184.00
2017-11-11T12:25:58.242Z,3068.00
2017-11-11T12:26:58.222Z,2844.00
2017-11-11T12:27:58.204Z,2832.00
2017-11-11T12:28:58.251Z,2752.00
2017-11-11T12:29:58.143Z,2380.00
2017-11-11T12:30:58.223Z,2316.00
2017-11-11T12:31:58.110Z,2352.00
2017-11-11T12:32:58.073Z,2484.00
2017-11-11T12:33:58.056Z,2524.00
2017-11-11T12:34:58.076Z,2544.00
2017-11-11T12:35:58.010Z,2376.00
2017-11-11T12:36:57.987Z,2308.00
2017-11-11T12:37:57.965Z,2076.00
2017-11-11T12:38:57.953Z,2060.00
2017-11-11T12:39:57.930Z,2060.00
2017-11-11T12:40:57.902Z,2072.00